Time;durP1;ratioP1;P1;durP2;ratioP2;P2;SDS_P1;SDS_P2;PMS_P1;PMS_P2;Temp;Humidity;BMP_temperature;BMP_pressure;BME280_temperature;BME280_humidity;BME280_pressure;Samples;Min_cycle;Max_cycle;Signal;HPM_P1;HPM_P2
2022/09/23 00:00:26;;;;;;;;;14.33;13.67;;;;;17.11;44.90;100986.25;5016916;28;45534;-66
2022/09/23 00:02:53;;;;;;;;;13.33;12.00;;;;;17.14;44.91;100986.06;5034066;28;48289;-64
2022/09/23 00:05:20;;;;;;;;;13.33;12.33;;;;;17.14;44.86;100975.44;5032137;28;45494;-65
2022/09/23 00:08:01;;;;;;;;;12.00;9.67;;;;;17.15;44.54;100969.19;5013807;28;45447;-64
2022/09/23 00:10:30;;;;;;;;;10.33;10.33;;;;;17.17;44.68;100972.63;5014339;28;45448;-67
2022/09/23 00:12:57;;;;;;;;;10.33;10.33;;;;;17.14;44.65;100970.13;5013501;28;46427;-65
2022/09/23 00:15:24;;;;;;;;;9.00;9.00;;;;;17.14;44.55;100970.13;5025976;28;45507;-67
2022/09/23 00:17:56;;;;;;;;;11.00;9.67;;;;;17.13;44.09;100974.56;5017961;28;45487;-67
2022/09/23 00:34:19;;;;;;;;;10.00;10.00;;;;;16.98;44.89;100955.06;4998755;28;45431;-66
2022/09/23 00:36:46;;;;;;;;;12.00;10.00;;;;;16.95;44.88;100949.03;5014956;28;45506;-68
2022/09/23 00:39:12;;;;;;;;;10.33;10.33;;;;;16.90;44.80;100946.66;5017177;28;44955;-68
2022/09/23 00:41:39;;;;;;;;;13.67;11.33;;;;;16.91;44.88;100948.38;5016782;28;45519;-69
2022/09/23 00:45:00;;;;;;;;;11.00;10.00;;;;;16.84;44.92;100936.34;5000445;28;45492;-68
2022/09/23 00:47:34;;;;;;;;;11.67;11.00;;;;;16.89;44.91;100944.94;4995944;28;46269;-68
2022/09/23 00:50:30;;;;;;;;;11.00;11.00;;;;;16.88;45.35;100940.56;4992827;28;45482;-67
2022/09/23 00:53:00;;;;;;;;;11.00;9.00;;;;;16.85;45.29;100938.09;5015258;28;45523;-68
2022/09/23 00:55:34;;;;;;;;;10.67;10.67;;;;;16.84;45.62;100933.69;5016919;28;45593;-66
2022/09/23 00:58:04;;;;;;;;;9.67;9.67;;;;;16.78;45.40;100934.06;5016800;28;47410;-67
2022/09/23 01:00:32;;;;;;;;;12.00;10.33;;;;;16.81;45.42;100935.69;5015634;28;45608;-68
2022/09/23 01:03:00;;;;;;;;;9.67;9.67;;;;;16.77;45.79;100935.00;5000029;28;45428;-67
2022/09/23 01:05:26;;;;;;;;;10.33;10.33;;;;;16.75;46.08;100936.84;5006428;28;45501;-69
2022/09/23 01:07:56;;;;;;;;;8.00;8.00;;;;;16.73;45.54;100934.28;5000137;28;47129;-67
2022/09/23 01:10:33;;;;;;;;;8.33;7.33;;;;;16.72;46.05;100934.38;5015947;28;45381;-67
2022/09/23 01:13:14;;;;;;;;;9.33;9.33;;;;;16.70;46.21;100930.94;5015782;28;45463;-68
2022/09/23 01:15:54;;;;;;;;;12.00;12.00;;;;;16.68;45.38;100933.66;5016877;28;45467;-67
2022/09/23 01:19:04;;;;;;;;;9.67;9.67;;;;;16.48;46.26;100902.91;5017267;28;47952;-67
2022/09/23 01:22:21;;;;;;;;;12.33;12.00;;;;;16.65;45.63;100933.84;4999030;28;45493;-66
2022/09/23 01:25:08;;;;;;;;;9.33;9.33;;;;;16.63;45.70;100930.44;4992723;28;45546;-68
2022/09/23 01:28:02;;;;;;;;;10.33;10.33;;;;;16.56;46.47;100927.25;4997071;28;45655;-66
2022/09/23 01:30:57;;;;;;;;;10.00;10.00;;;;;16.54;45.99;100918.50;4992930;28;47283;-67
2022/09/23 01:33:53;;;;;;;;;10.00;10.00;;;;;16.55;47.02;100917.59;4997064;28;45436;-67
2022/09/23 01:36:41;;;;;;;;;12.00;11.33;;;;;16.55;46.40;100914.94;4991476;28;45499;-67
2022/09/23 01:53:00;;;;;;;;;12.00;11.00;;;;;16.45;47.61;100899.59;4930783;28;46963;-66
2022/09/23 01:55:43;;;;;;;;;11.67;9.33;;;;;16.44;46.93;100900.50;5001290;28;46489;-67
2022/09/23 01:58:35;;;;;;;;;9.33;9.33;;;;;16.46;46.92;100910.09;4996682;28;45417;-66
2022/09/23 02:01:06;;;;;;;;;10.33;10.33;;;;;16.47;47.59;100911.84;5002687;28;46093;-66
2022/09/23 02:03:50;;;;;;;;;7.67;7.67;;;;;16.45;46.54;100911.06;4996239;28;45534;-67
2022/09/23 02:06:31;;;;;;;;;11.67;9.00;;;;;16.45;47.34;100900.44;4996352;28;45506;-66
2022/09/23 02:09:01;;;;;;;;;8.67;8.67;;;;;16.46;46.70;100904.78;4997198;28;45501;-67
2022/09/23 02:11:35;;;;;;;;;13.33;11.33;;;;;16.37;47.06;100899.16;5013365;28;45584;-67
2022/09/23 02:14:04;;;;;;;;;9.00;9.00;;;;;16.44;47.09;100897.84;5015725;28;45494;-66
2022/09/23 02:16:38;;;;;;;;;10.67;10.00;;;;;16.46;47.25;100899.47;5016130;28;45421;-67
2022/09/23 02:19:28;;;;;;;;;9.33;8.00;;;;;16.45;46.48;100902.25;5017598;28;45610;-67
2022/09/23 02:22:20;;;;;;;;;9.00;8.33;;;;;16.45;46.57;100907.56;5016600;28;45524;-67
2022/09/23 02:24:48;;;;;;;;;9.00;7.67;;;;;16.40;47.25;100899.81;5014930;28;45518;-68
2022/09/23 02:27:29;;;;;;;;;8.00;8.00;;;;;16.42;47.04;100899.75;5015192;28;48140;-68
2022/09/23 02:30:15;;;;;;;;;10.00;9.33;;;;;16.41;47.07;100893.56;5015438;28;45488;-68
2022/09/23 02:33:16;;;;;;;;;9.33;8.00;;;;;16.41;47.25;100892.72;5015816;28;46080;-67
2022/09/23 02:36:00;;;;;;;;;10.67;10.67;;;;;16.40;47.51;100896.31;5017033;28;45463;-66
2022/09/23 02:38:35;;;;;;;;;9.00;8.33;;;;;16.39;47.13;100892.81;4998744;28;47864;-66
2022/09/23 02:41:25;;;;;;;;;7.33;7.33;;;;;16.40;47.10;100889.22;5009333;28;45598;-67
2022/09/23 02:44:05;;;;;;;;;8.00;8.00;;;;;16.38;47.58;100896.41;5014465;28;45555;-67
2022/09/23 02:46:32;;;;;;;;;9.33;9.33;;;;;16.38;46.63;100885.78;5014783;28;45562;-66
2022/09/23 02:49:03;;;;;;;;;13.00;8.33;;;;;16.36;47.48;100890.31;5014793;28;48437;-67
2022/09/23 02:51:33;;;;;;;;;11.00;11.00;;;;;16.36;47.61;100885.00;5014649;28;45508;-67
2022/09/23 02:54:02;;;;;;;;;8.00;7.33;;;;;16.33;47.48;100890.47;5014693;28;45514;-67
2022/09/23 02:56:32;;;;;;;;;10.33;10.33;;;;;16.27;47.99;100875.75;5014792;28;45471;-66
2022/09/23 02:58:59;;;;;;;;;11.33;11.00;;;;;16.26;48.25;100881.16;5015190;28;45522;-67
2022/09/23 03:01:25;;;;;;;;;10.00;10.00;;;;;16.22;48.91;100877.78;5014890;28;45479;-67
2022/09/23 03:04:16;;;;;;;;;10.67;9.67;;;;;16.22;48.79;100879.59;5016249;28;45404;-68
2022/09/23 03:06:53;;;;;;;;;12.00;10.67;;;;;16.24;48.06;100875.06;5016256;28;45561;-67
2022/09/23 03:09:42;;;;;;;;;9.00;7.67;;;;;16.23;48.32;100876.88;5014524;28;46774;-66
2022/09/23 03:12:20;;;;;;;;;9.67;9.67;;;;;16.23;47.58;100873.38;5012159;28;45614;-65
2022/09/23 03:15:01;;;;;;;;;11.00;9.33;;;;;16.22;48.07;100868.97;5014730;28;45563;-65
2022/09/23 03:17:54;;;;;;;;;9.33;8.67;;;;;16.21;47.89;100868.13;5014464;28;45476;-64
2022/09/23 03:20:48;;;;;;;;;10.33;7.00;;;;;16.22;47.17;100874.28;5014242;28;48530;-66
2022/09/23 03:23:20;;;;;;;;;8.00;6.67;;;;;16.22;47.15;100872.47;5015882;28;45420;-66
2022/09/23 03:25:49;;;;;;;;;8.00;8.00;;;;;16.23;47.14;100862.75;5018009;28;45467;-65
2022/09/23 03:28:20;;;;;;;;;10.33;9.33;;;;;16.22;47.46;100864.53;5002305;28;45567;-65
2022/09/23 03:30:48;;;;;;;;;9.33;7.67;;;;;16.20;46.96;100865.53;5014461;28;47343;-65
2022/09/23 03:33:17;;;;;;;;;7.33;7.33;;;;;16.23;47.18;100871.56;4999290;28;45465;-65
2022/09/23 03:38:53;;;;;;;;;7.67;7.67;;;;;16.26;46.38;100866.09;5018749;28;45543;-65
2022/09/23 03:41:29;;;;;;;;;7.33;7.33;;;;;16.27;46.26;100867.78;5017292;28;47779;-66
2022/09/23 03:43:58;;;;;;;;;8.00;8.00;;;;;16.23;46.54;100860.94;5018758;28;45455;-66
2022/09/23 03:46:28;;;;;;;;;7.67;7.67;;;;;16.27;47.13;100881.06;5019107;28;46102;-68
2022/09/23 03:49:14;;;;;;;;;9.00;8.00;;;;;16.26;46.46;100879.34;5013404;28;45697;-67
2022/09/23 03:51:42;;;;;;;;;8.00;8.00;;;;;16.30;46.43;100882.69;5014168;28;46203;-67
2022/09/23 03:54:10;;;;;;;;;8.00;7.00;;;;;16.29;46.75;100880.97;5013554;28;45415;-69
2022/09/23 03:56:38;;;;;;;;;7.33;7.33;;;;;16.30;46.11;100877.38;4999347;28;45416;-66
2022/09/23 03:59:04;;;;;;;;;8.00;8.00;;;;;16.27;46.79;100874.91;5027785;28;45640;-68
2022/09/23 04:01:33;;;;;;;;;11.67;9.33;;;;;16.28;47.00;100879.25;5017973;28;53284;-67
2022/09/23 04:04:01;;;;;;;;;9.00;7.67;;;;;16.27;46.16;100877.53;5018913;28;45511;-67
2022/09/23 04:06:39;;;;;;;;;10.00;8.67;;;;;16.27;46.60;100883.72;5018702;28;45520;-68
2022/09/23 04:09:09;;;;;;;;;8.00;6.00;;;;;16.26;45.72;100884.66;5018052;28;45470;-68
2022/09/23 04:11:51;;;;;;;;;9.67;7.00;;;;;16.27;46.97;100885.50;5019068;28;45525;-66
2022/09/23 04:14:19;;;;;;;;;7.67;7.67;;;;;16.28;46.31;100884.56;5018791;28;45514;-67
2022/09/23 04:16:46;;;;;;;;;9.67;8.00;;;;;16.27;47.02;100886.38;5019317;28;45462;-66
2022/09/23 04:19:16;;;;;;;;;6.67;6.00;;;;;16.19;46.40;100870.00;5016401;28;45570;-69
2022/09/23 04:21:45;;;;;;;;;9.00;8.00;;;;;16.23;46.46;100884.84;5017992;28;45531;-67
2022/09/23 04:24:12;;;;;;;;;10.67;8.67;;;;;16.23;46.91;100871.56;5016338;28;45486;-69
2022/09/23 04:26:38;;;;;;;;;11.33;10.00;;;;;16.18;46.85;100873.59;5017253;28;45486;-68
2022/09/23 04:29:04;;;;;;;;;6.33;6.33;;;;;16.21;46.56;100873.44;5015792;28;45573;-69
2022/09/23 04:31:32;;;;;;;;;10.67;9.67;;;;;16.19;47.41;100877.97;5018183;28;46134;-67
2022/09/23 04:33:58;;;;;;;;;8.33;8.00;;;;;16.18;46.89;100870.09;5016395;28;45594;-66
2022/09/23 04:36:29;;;;;;;;;10.00;10.00;;;;;16.17;47.13;100874.53;5016628;28;45502;-68
2022/09/23 04:38:55;;;;;;;;;10.00;10.00;;;;;16.18;47.52;100872.75;5016167;28;45634;-66
2022/09/23 04:41:21;;;;;;;;;13.33;9.33;;;;;16.17;47.20;100873.69;5016783;28;45509;-67
2022/09/23 04:43:47;;;;;;;;;10.33;10.33;;;;;16.07;48.06;100855.63;5014385;28;45463;-68
2022/09/23 04:46:15;;;;;;;;;13.67;10.67;;;;;16.11;47.70;100867.75;5016891;28;45478;-67
2022/09/23 04:48:42;;;;;;;;;7.00;7.00;;;;;16.06;47.85;100861.84;5016672;28;45523;-67
2022/09/23 04:51:17;;;;;;;;;11.33;8.00;;;;;16.06;47.31;100861.00;5017261;28;45557;-66
2022/09/23 04:53:49;;;;;;;;;7.00;7.00;;;;;16.05;47.79;100865.44;5015931;28;45626;-67
2022/09/23 04:56:27;;;;;;;;;8.67;8.67;;;;;15.99;47.63;100854.31;5016830;28;45483;-68
2022/09/23 04:58:56;;;;;;;;;8.67;8.67;;;;;15.95;48.53;100864.22;5016257;28;45408;-66
2022/09/23 05:01:25;;;;;;;;;11.00;11.00;;;;;15.98;48.16;100866.69;5015267;28;47628;-68
2022/09/23 05:04:01;;;;;;;;;7.67;7.67;;;;;15.98;47.30;100858.75;5032825;28;45526;-68
2022/09/23 05:06:30;;;;;;;;;6.67;6.67;;;;;15.96;47.55;100849.16;5018054;28;45505;-67
2022/09/23 05:08:57;;;;;;;;;11.00;10.00;;;;;15.94;48.46;100849.25;5032508;28;45435;-66
2022/09/23 05:11:25;;;;;;;;;10.00;10.00;;;;;15.95;48.33;100850.09;5032101;28;46488;-67
2022/09/23 05:13:54;;;;;;;;;10.33;10.00;;;;;15.92;48.26;100844.97;5017335;28;45584;-68
2022/09/23 05:16:24;;;;;;;;;9.00;9.00;;;;;15.89;47.49;100846.84;5016780;28;45410;-67
2022/09/23 05:18:51;;;;;;;;;13.67;11.00;;;;;15.84;47.99;100842.72;5000622;28;45483;-68
2022/09/23 05:21:21;;;;;;;;;12.00;10.00;;;;;15.87;48.72;100851.38;5016371;28;46939;-66
2022/09/23 05:23:54;;;;;;;;;12.33;11.33;;;;;15.86;48.88;100844.34;5016530;28;45473;-68
2022/09/23 05:26:21;;;;;;;;;14.33;13.67;;;;;15.86;49.13;100848.81;5016545;28;45495;-67
2022/09/23 05:28:48;;;;;;;;;13.33;13.00;;;;;15.89;49.02;100843.34;5003914;28;45563;-66
2022/09/23 05:31:16;;;;;;;;;14.33;14.33;;;;;15.87;49.95;100840.75;4995937;28;47989;-66
2022/09/23 05:33:46;;;;;;;;;15.00;15.00;;;;;15.90;49.46;100845.03;5003309;28;45544;-68
2022/09/23 05:36:12;;;;;;;;;15.00;14.67;;;;;15.92;49.79;100851.13;5015843;28;45477;-67
2022/09/23 05:39:00;;;;;;;;;18.00;14.67;;;;;15.94;50.42;100848.41;5016452;28;45527;-66
2022/09/23 05:41:26;;;;;;;;;15.00;13.33;;;;;15.97;50.03;100853.53;5016685;28;45558;-68
2022/09/23 05:43:54;;;;;;;;;12.67;12.67;;;;;15.96;49.54;100851.81;5018205;28;45472;-66
2022/09/23 05:46:23;;;;;;;;;17.67;16.33;;;;;15.95;50.30;100855.41;4988576;28;45548;-66
2022/09/23 06:03:26;;;;;;;;;11.33;10.33;;;;;15.99;49.12;100859.63;4999643;28;46274;-67
2022/09/23 06:05:59;;;;;;;;;11.33;11.33;;;;;16.00;48.31;100864.84;5015637;28;46609;-68
2022/09/23 06:08:24;;;;;;;;;9.67;9.67;;;;;16.01;48.27;100858.59;5014154;28;45544;-65
2022/09/23 06:10:53;;;;;;;;;12.33;11.33;;;;;16.02;48.41;100859.47;5011472;28;45703;-66
2022/09/23 06:13:24;;;;;;;;;13.00;13.00;;;;;16.01;48.39;100860.38;4998992;28;45416;-65
2022/09/23 06:15:56;;;;;;;;;9.00;9.00;;;;;16.02;47.26;100854.16;5013839;28;45540;-63
2022/09/23 06:18:27;;;;;;;;;10.00;10.00;;;;;15.98;47.74;100850.78;5008515;28;45410;-67
2022/09/23 06:20:57;;;;;;;;;10.33;10.33;;;;;15.99;48.57;100844.56;4996568;28;45480;-68
2022/09/23 06:23:27;;;;;;;;;11.67;11.67;;;;;15.86;48.64;100831.09;4995140;28;45650;-66
2022/09/23 06:26:05;;;;;;;;;13.67;11.67;;;;;16.03;49.14;100856.72;4983367;28;45441;-65
2022/09/23 06:28:33;;;;;;;;;13.67;12.33;;;;;16.03;48.22;100861.16;5014869;28;45481;-67
2022/09/23 06:31:04;;;;;;;;;16.00;12.33;;;;;16.04;48.48;100866.41;5012779;28;45591;-64
2022/09/23 06:33:32;;;;;;;;;12.00;12.00;;;;;16.02;48.63;100862.97;5007315;28;45686;-60
2022/09/23 06:36:00;;;;;;;;;16.67;15.00;;;;;16.02;49.23;100868.28;4994769;28;45520;-61
2022/09/23 06:38:27;;;;;;;;;13.00;11.00;;;;;16.00;48.96;100870.13;4994916;28;45425;-61
2022/09/23 06:40:55;;;;;;;;;17.33;13.00;;;;;15.99;49.45;100871.09;4995068;28;45514;-61
2022/09/23 06:43:25;;;;;;;;;23.33;22.00;;;;;15.95;49.05;100866.03;4995183;28;45658;-60
2022/09/23 06:46:03;;;;;;;;;18.67;16.00;;;;;15.93;49.34;100868.75;4995149;28;48089;-59
2022/09/23 06:48:34;;;;;;;;;16.00;15.33;;;;;15.95;48.73;100866.88;4996438;28;45448;-61
2022/09/23 06:51:02;;;;;;;;;16.67;15.33;;;;;15.96;49.53;100862.41;4994861;28;45479;-60
2022/09/23 06:53:32;;;;;;;;;15.33;15.33;;;;;15.95;48.58;100858.06;4994970;28;45625;-62
2022/09/23 06:56:20;;;;;;;;;14.00;13.67;;;;;15.93;49.15;100852.81;4994970;28;48026;-60
2022/09/23 06:58:49;;;;;;;;;18.33;15.67;;;;;15.96;49.20;100865.94;4995558;28;45500;-62
2022/09/23 07:01:16;;;;;;;;;18.33;18.33;;;;;15.98;49.16;100874.66;4998668;28;45579;-61
2022/09/23 07:03:44;;;;;;;;;20.67;20.67;;;;;16.00;49.78;100869.28;4981951;28;45484;-61
2022/09/23 07:06:11;;;;;;;;;20.33;18.67;;;;;16.00;49.52;100870.13;4999266;28;45603;-60
2022/09/23 07:18:47;;;;;;;;;19.00;19.00;;;;;16.00;49.22;100851.56;5000257;28;45771;-61
2022/09/23 07:21:16;;;;;;;;;19.00;17.00;;;;;16.08;48.52;100859.97;4999359;28;45572;-61
2022/09/23 07:23:45;;;;;;;;;17.33;15.33;;;;;16.09;49.39;100861.69;5000341;28;45444;-61
2022/09/23 07:26:12;;;;;;;;;19.33;19.33;;;;;16.10;49.37;100858.09;4999429;28;45491;-60
2022/09/23 07:28:40;;;;;;;;;16.33;16.33;;;;;16.07;48.94;100852.97;4997532;28;46955;-61
2022/09/23 07:31:12;;;;;;;;;22.67;20.67;;;;;16.03;49.31;100859.34;4997865;28;45516;-62
2022/09/23 07:33:39;;;;;;;;;18.67;18.67;;;;;16.12;49.83;100863.34;4999175;28;45561;-61
2022/09/23 07:36:13;;;;;;;;;23.67;21.33;;;;;16.13;49.33;100871.19;4997634;28;45439;-62
2022/09/23 07:38:40;;;;;;;;;14.33;13.33;;;;;16.15;50.14;100881.75;4997912;28;46235;-62
2022/09/23 07:41:10;;;;;;;;;20.33;19.33;;;;;16.19;48.97;100874.47;4996811;28;45537;-60
2022/09/23 07:43:36;;;;;;;;;18.00;17.00;;;;;16.18;50.29;100876.25;4999037;28;45491;-61
2022/09/23 07:46:09;;;;;;;;;18.33;18.00;;;;;16.21;49.69;100881.41;4998905;28;45498;-60
2022/09/23 07:48:37;;;;;;;;;24.33;19.33;;;;;16.24;49.10;100870.59;4997517;28;45539;-60
2022/09/23 07:51:19;;;;;;;;;23.33;20.67;;;;;16.23;49.72;100868.91;4998627;28;45560;-61
2022/09/23 07:53:53;;;;;;;;;21.00;21.00;;;;;16.28;49.01;100873.94;4999093;28;45500;-62
2022/09/23 07:56:23;;;;;;;;;18.00;18.00;;;;;16.31;49.66;100887.06;4997570;28;45476;-62
2022/09/23 07:58:59;;;;;;;;;19.33;19.00;;;;;16.34;48.82;100884.25;4998352;28;45375;-61
2022/09/23 08:01:40;;;;;;;;;21.67;20.67;;;;;16.37;48.37;100894.69;4996429;28;45400;-59
2022/09/23 08:04:17;;;;;;;;;22.33;21.33;;;;;16.42;48.84;100905.06;4997003;28;45552;-60
2022/09/23 08:06:46;;;;;;;;;22.33;18.67;;;;;16.42;48.71;100897.09;4997041;28;45548;-61
2022/09/23 08:09:14;;;;;;;;;24.33;20.67;;;;;16.42;48.28;100899.75;4996724;28;48037;-60
2022/09/23 08:11:41;;;;;;;;;21.33;21.33;;;;;16.43;48.43;100904.97;4997041;28;45425;-60
2022/09/23 08:14:12;;;;;;;;;18.67;18.67;;;;;16.40;47.87;100899.81;4997108;28;45485;-59
2022/09/23 08:16:39;;;;;;;;;16.33;16.00;;;;;16.41;48.77;100901.53;4998822;28;45465;-61
2022/09/23 08:19:08;;;;;;;;;16.00;16.00;;;;;16.44;48.14;100905.81;5013210;28;46316;-59
2022/09/23 08:21:35;;;;;;;;;13.00;12.00;;;;;16.43;47.83;100909.44;4996740;28;45469;-61
2022/09/23 08:24:04;;;;;;;;;24.33;23.00;;;;;16.47;47.78;100917.16;4997483;28;45460;-60
2022/09/23 08:26:33;;;;;;;;;20.00;18.33;;;;;16.49;47.05;100909.94;4996993;28;45595;-60
2022/09/23 08:28:59;;;;;;;;;22.00;19.00;;;;;16.55;47.13;100906.09;4996722;28;45498;-60
2022/09/23 08:31:26;;;;;;;;;17.00;17.00;;;;;16.58;47.79;100913.91;4996302;28;45449;-61
2022/09/23 08:33:56;;;;;;;;;18.67;18.33;;;;;16.63;47.92;100913.63;4997050;28;45430;-59
2022/09/23 08:36:23;;;;;;;;;13.67;13.33;;;;;16.67;47.39;100897.44;4996353;28;45682;-61
2022/09/23 08:38:49;;;;;;;;;16.33;14.33;;;;;16.74;47.60;100905.94;4996389;28;47870;-62
2022/09/23 08:41:21;;;;;;;;;17.67;16.33;;;;;16.79;47.55;100903.88;4998193;28;46025;-62
2022/09/23 08:43:54;;;;;;;;;13.33;13.33;;;;;16.86;47.48;100905.25;4996431;28;45490;-59
2022/09/23 08:46:28;;;;;;;;;19.00;18.00;;;;;16.81;47.29;100902.00;4996753;28;45562;-59
2022/09/23 08:48:55;;;;;;;;;19.00;17.00;;;;;16.92;47.16;100906.72;4997425;28;46157;-60
2022/09/23 08:51:34;;;;;;;;;19.67;16.33;;;;;16.93;46.59;100903.13;4997672;28;45516;-60
2022/09/23 08:54:08;;;;;;;;;19.67;16.67;;;;;16.95;47.46;100906.53;4996598;28;44816;-60
2022/09/23 08:56:37;;;;;;;;;16.33;15.00;;;;;16.94;47.21;100904.81;4996391;28;45588;-59
2022/09/23 09:02:37;;;;;;;;;24.00;23.33;;;;;17.04;47.26;100907.81;4786350;28;47008;-60
2022/09/23 09:05:09;;;;;;;;;35.00;30.33;;;;;17.09;47.28;100909.28;4997724;28;45440;-61
2022/09/23 09:07:38;;;;;;;;;25.67;20.67;;;;;17.14;47.21;100916.97;4996595;28;45467;-62
2022/09/23 09:10:17;;;;;;;;;20.00;17.00;;;;;17.15;46.62;100903.59;4997177;28;45573;-61
2022/09/23 09:16:48;;;;;;;;;20.00;18.00;;;;;17.21;46.78;100908.53;4997368;28;45558;-61
2022/09/23 09:19:27;;;;;;;;;18.67;17.00;;;;;17.23;46.38;100900.50;4974122;28;45527;-61
2022/09/23 09:21:54;;;;;;;;;24.00;19.67;;;;;17.28;46.84;100897.56;4995155;28;46302;-61
2022/09/23 09:24:30;;;;;;;;;18.00;17.33;;;;;17.31;46.49;100903.56;4979038;28;45516;-60
2022/09/23 09:26:57;;;;;;;;;18.00;17.33;;;;;17.35;47.23;100898.91;4996223;28;45578;-61
2022/09/23 09:29:30;;;;;;;;;17.33;17.33;;;;;17.38;47.00;100896.94;4995874;28;45592;-60
2022/09/23 09:31:57;;;;;;;;;22.33;17.67;;;;;17.43;46.82;100905.47;4995306;28;46244;-61
2022/09/23 09:34:34;;;;;;;;;17.33;16.33;;;;;17.51;46.97;100901.53;4995741;28;45471;-61
2022/09/23 09:37:17;;;;;;;;;16.67;15.00;;;;;17.52;46.31;100896.13;4995651;28;45532;-60
2022/09/23 09:39:45;;;;;;;;;17.00;16.00;;;;;17.60;47.43;100898.34;4995364;28;45566;-59
2022/09/23 09:42:40;;;;;;;;;23.67;22.67;;;;;17.61;46.36;100897.38;4979019;28;45557;-61
2022/09/23 09:45:37;;;;;;;;;18.33;18.00;;;;;17.70;46.00;100899.47;4996875;28;45512;-60
2022/09/23 09:48:26;;;;;;;;;18.33;15.33;;;;;17.71;46.26;100890.56;4995756;28;45446;-60
2022/09/23 09:50:54;;;;;;;;;16.67;16.00;;;;;17.79;46.02;100892.78;4995275;28;45587;-62
2022/09/23 09:53:34;;;;;;;;;19.33;18.00;;;;;17.87;46.31;100902.00;4995598;28;47855;-59
2022/09/23 09:56:14;;;;;;;;;27.33;24.33;;;;;17.93;46.30;100899.91;4995159;28;45488;-61
2022/09/23 09:58:49;;;;;;;;;18.00;17.33;;;;;17.97;45.66;100890.78;4995433;28;45464;-59
2022/09/23 10:01:30;;;;;;;;;15.67;15.67;;;;;18.01;45.37;100894.97;4995787;28;45451;-61
2022/09/23 10:14:18;;;;;;;;;13.67;12.00;;;;;18.26;45.82;100891.63;4997946;28;45434;-59
2022/09/23 10:16:47;;;;;;;;;11.00;11.00;;;;;18.10;44.75;100857.13;4994968;28;46248;-61
2022/09/23 10:19:27;;;;;;;;;11.33;10.67;;;;;18.32;45.12;100885.91;4994792;28;45461;-59
2022/09/23 10:22:08;;;;;;;;;11.00;11.00;;;;;18.39;44.74;100884.59;4995992;28;45520;-60
2022/09/23 10:24:35;;;;;;;;;14.67;14.00;;;;;18.43;44.04;100880.78;4994655;28;45608;-60
2022/09/23 10:27:10;;;;;;;;;13.67;12.67;;;;;18.47;44.49;100878.78;4995128;28;45480;-61
2022/09/23 10:29:48;;;;;;;;;10.67;10.67;;;;;18.47;44.31;100870.78;4995334;28;45518;-60
2022/09/23 10:32:20;;;;;;;;;9.00;9.00;;;;;18.49;44.51;100869.75;4994681;28;45490;-64
2022/09/23 10:35:10;;;;;;;;;11.67;10.33;;;;;18.50;44.89;100863.44;4998269;28;45485;-61
2022/09/23 10:37:59;;;;;;;;;10.67;10.33;;;;;18.51;46.18;100869.63;5005081;28;45697;-60
2022/09/23 10:46:37;;;;;;;;;14.00;12.33;;;;;18.60;43.39;100861.06;4999759;28;45544;-60
2022/09/23 10:49:19;;;;;;;;;15.67;15.67;;;;;18.66;44.99;100867.78;4999650;28;46431;-58
2022/09/23 10:51:57;;;;;;;;;12.33;10.67;;;;;18.72;42.93;100862.91;4999106;28;45451;-58
2022/09/23 10:54:45;;;;;;;;;14.33;14.33;;;;;18.79;43.10;100859.91;4997977;28;45436;-60
2022/09/23 10:57:40;;;;;;;;;18.33;15.67;;;;;18.83;42.40;100851.56;4999231;28;45477;-62
2022/09/23 11:00:36;;;;;;;;;11.67;10.33;;;;;18.88;42.66;100846.81;4997670;28;46293;-60
2022/09/23 11:03:37;;;;;;;;;16.67;15.67;;;;;18.94;42.08;100849.09;4997292;28;45452;-61
2022/09/23 11:06:28;;;;;;;;;10.33;10.33;;;;;18.97;42.67;100845.34;4998218;28;45445;-62
2022/09/23 11:09:15;;;;;;;;;13.00;12.67;;;;;18.97;42.60;100840.03;5031399;28;45491;-60
2022/09/23 11:12:30;;;;;;;;;13.00;12.67;;;;;19.00;42.26;100839.81;5017515;28;45467;-63
2022/09/23 11:15:24;;;;;;;;;42.00;37.67;;;;;19.05;41.47;100834.16;5003249;28;45559;-63
2022/09/23 11:18:15;;;;;;;;;34.00;31.33;;;;;19.05;41.48;100834.16;5014172;28;45494;-62
2022/09/23 11:20:41;;;;;;;;;38.00;32.67;;;;;19.06;41.16;100836.72;5027228;28;45493;-63
2022/09/23 11:23:17;;;;;;;;;30.67;28.00;;;;;19.07;40.29;100841.09;5016918;28;45450;-63
2022/09/23 11:26:22;;;;;;;;;22.67;21.33;;;;;19.09;41.44;100839.19;4999363;28;45616;-62
2022/09/23 11:28:54;;;;;;;;;20.33;20.00;;;;;19.13;40.78;100832.72;4997987;28;45497;-67
2022/09/23 11:31:30;;;;;;;;;9.00;7.33;;;;;19.16;41.62;100820.97;5005742;28;45860;-66
2022/09/23 11:34:33;;;;;;;;;8.67;8.33;;;;;19.18;40.69;100825.25;5016482;28;46438;-67
2022/09/23 11:37:12;;;;;;;;;9.00;9.00;;;;;19.25;41.18;100828.34;5008944;28;45519;-67
2022/09/23 11:39:50;;;;;;;;;8.67;8.67;;;;;19.26;41.24;100829.19;4981011;28;45530;-67
2022/09/23 11:42:44;;;;;;;;;10.67;9.00;;;;;19.27;41.11;100830.91;4997610;28;45423;-66
2022/09/23 11:45:41;;;;;;;;;9.00;8.33;;;;;19.29;40.82;100820.97;4996738;28;46071;-67
2022/09/23 11:48:25;;;;;;;;;9.67;9.67;;;;;19.30;40.65;100818.22;4997136;28;45436;-67
2022/09/23 11:51:10;;;;;;;;;9.00;9.00;;;;;19.33;41.71;100810.00;4981017;28;45577;-67
2022/09/23 11:53:43;;;;;;;;;9.00;9.00;;;;;19.33;41.45;100809.16;5013739;28;45632;-66
2022/09/23 11:56:22;;;;;;;;;11.33;10.33;;;;;19.37;40.48;100808.84;5014005;28;45448;-66
2022/09/23 11:59:02;;;;;;;;;12.33;11.33;;;;;19.43;41.03;100808.41;4997485;28;45545;-66
2022/09/23 12:02:01;;;;;;;;;11.33;11.33;;;;;19.46;41.02;100810.03;5012973;28;45495;-66
2022/09/23 12:04:44;;;;;;;;;10.00;8.00;;;;;19.57;40.17;100811.94;5012212;28;45581;-71
2022/09/23 12:07:19;;;;;;;;;9.33;8.67;;;;;19.66;40.89;100816.66;5011714;28;45654;-66
2022/09/23 12:10:08;;;;;;;;;7.33;7.33;;;;;19.69;40.56;100815.59;4998629;28;45501;-66
2022/09/23 12:13:07;;;;;;;;;7.33;7.33;;;;;19.72;40.00;100813.59;4998363;28;45471;-66
2022/09/23 12:15:47;;;;;;;;;7.67;7.67;;;;;19.79;40.13;100822.84;4967616;28;45522;-66
2022/09/23 12:38:20;;;;;;;;;9.33;9.00;;;;;20.04;39.94;100805.97;4995652;28;45460;-66
2022/09/23 12:40:47;;;;;;;;;7.33;7.33;;;;;20.08;39.16;100801.25;4995642;28;45501;-66
2022/09/23 12:43:30;;;;;;;;;7.00;6.33;;;;;20.11;38.87;100792.16;4995944;28;45667;-66
2022/09/23 12:46:26;;;;;;;;;10.33;8.67;;;;;20.12;38.57;100788.50;4979918;28;45491;-66
2022/09/23 12:48:59;;;;;;;;;12.67;12.00;;;;;20.12;39.69;100792.03;4991502;28;45599;-66
2022/09/23 12:51:27;;;;;;;;;14.00;14.00;;;;;20.11;40.68;100793.00;4995629;28;45504;-66
2022/09/23 12:53:58;;;;;;;;;18.00;15.67;;;;;20.15;40.28;100788.28;4996048;28;48148;-66
2022/09/23 12:56:33;;;;;;;;;14.67;13.67;;;;;20.21;40.22;100794.03;4995382;28;45438;-66
2022/09/23 12:59:20;;;;;;;;;15.33;13.67;;;;;20.23;40.56;100784.13;4997727;28;45453;-66
2022/09/23 13:01:47;;;;;;;;;10.67;10.67;;;;;20.28;40.58;100781.09;4996134;28;45404;-67
2022/09/23 13:07:44;;;;;;;;;14.00;12.67;;;;;20.33;40.95;100776.25;4997437;28;45470;-66
2022/09/23 13:10:26;;;;;;;;;14.00;12.00;;;;;20.35;40.77;100770.81;5011879;28;45572;-66
2022/09/23 13:12:54;;;;;;;;;12.33;12.33;;;;;20.36;40.96;100777.84;4996096;28;45452;-66
2022/09/23 13:15:27;;;;;;;;;13.67;11.33;;;;;20.29;40.07;100759.63;4997025;28;45473;-66
2022/09/23 13:18:19;;;;;;;;;15.33;11.33;;;;;20.35;40.56;100776.16;4995469;28;45524;-66
2022/09/23 13:20:48;;;;;;;;;13.33;12.00;;;;;20.34;40.45;100777.97;4995884;28;45453;-66
2022/09/23 13:23:20;;;;;;;;;12.67;12.67;;;;;20.32;40.46;100766.56;4997085;28;45654;-67
2022/09/23 13:25:47;;;;;;;;;13.67;13.67;;;;;20.34;40.43;100774.44;4995518;28;47610;-66
2022/09/23 13:28:26;;;;;;;;;10.67;10.67;;;;;20.37;40.60;100767.06;4995772;28;45605;-66
2022/09/23 13:30:52;;;;;;;;;11.33;11.33;;;;;20.42;40.46;100769.41;4996091;28;45470;-66
2022/09/23 13:33:26;;;;;;;;;11.67;11.67;;;;;20.42;41.12;100767.59;4995513;28;45588;-66